AAL256 KSBP-KPHX
Flight info
| Callsign | AAL256 |
|---|---|
| Flight time | 1h 7m |
| Altitude | 35000 |
| Route | DERBB MARIC PMD J65 BLH HYDRR1 |
| Aircraft | A319/M-SDE3FGHIRWY/LB1 |
Departure
| Time | 2026-05-01 14:17 |
|---|---|
| Airport | San Luis County Regional Airport (KSBP) |
Arrival
| Time | 2026-05-01 15:24 |
|---|---|
| Airport | Phoenix Sky Harbor International Airport (KPHX) |
| Time | Latitude | Longitude | Altitude | Speed | Heading |
|---|---|---|---|---|---|
| 2026-05-01 13:49 | 35.23777 | -120.63836 | 204 ft | 0 kts | 91° |
| 2026-05-01 14:07 | 35.23777 | -120.63844 | 203 ft | 3 kts | 92° |
| 2026-05-01 14:07 | 35.23780 | -120.63871 | 199 ft | 3 kts | 113° |
| 2026-05-01 14:07 | 35.23791 | -120.63890 | 218 ft | 3 kts | 161° |
| 2026-05-01 14:08 | 35.23800 | -120.63893 | 217 ft | 0 kts | 180° |
| 2026-05-01 14:11 | 35.23798 | -120.63893 | 203 ft | 0 kts | 180° |
| 2026-05-01 14:11 | 35.23789 | -120.63893 | 212 ft | 3 kts | 180° |
| 2026-05-01 14:12 | 35.23762 | -120.63894 | 208 ft | 5 kts | 189° |
| 2026-05-01 14:12 | 35.23751 | -120.63939 | 202 ft | 8 kts | 287° |
| 2026-05-01 14:12 | 35.23788 | -120.64024 | 203 ft | 15 kts | 298° |
| 2026-05-01 14:12 | 35.23849 | -120.64135 | 200 ft | 17 kts | 304° |
| 2026-05-01 14:13 | 35.23901 | -120.64225 | 202 ft | 14 kts | 309° |
| 2026-05-01 14:13 | 35.23952 | -120.64296 | 185 ft | 11 kts | 304° |
| 2026-05-01 14:13 | 35.24000 | -120.64380 | 184 ft | 13 kts | 305° |
| 2026-05-01 14:13 | 35.24057 | -120.64480 | 180 ft | 16 kts | 304° |
| 2026-05-01 14:14 | 35.24127 | -120.64604 | 176 ft | 19 kts | 305° |
| 2026-05-01 14:14 | 35.24191 | -120.64715 | 175 ft | 14 kts | 304° |
| 2026-05-01 14:14 | 35.24246 | -120.64812 | 173 ft | 11 kts | 305° |
| 2026-05-01 14:14 | 35.24274 | -120.64873 | 172 ft | 4 kts | 281° |
| 2026-05-01 14:15 | 35.24269 | -120.64894 | 172 ft | 0 kts | 241° |
| 2026-05-01 14:15 | 35.24268 | -120.64896 | 172 ft | 1 kts | 241° |
| 2026-05-01 14:15 | 35.24253 | -120.64919 | 172 ft | 6 kts | 223° |
| 2026-05-01 14:16 | 35.24213 | -120.64941 | 172 ft | 5 kts | 162° |
| 2026-05-01 14:16 | 35.24200 | -120.64921 | 172 ft | 0 kts | 124° |
| 2026-05-01 14:16 | 35.24197 | -120.64916 | 172 ft | 8 kts | 124° |
| 2026-05-01 14:16 | 35.23996 | -120.64559 | 180 ft | 90 kts | 125° |
| 2026-05-01 14:17 | 35.23513 | -120.63712 | 225 ft | 149 kts | 124° |
| 2026-05-01 14:17 | 35.22912 | -120.62691 | 912 ft | 144 kts | 127° |
| 2026-05-01 14:17 | 35.22183 | -120.61879 | 1622 ft | 141 kts | 142° |
| 2026-05-01 14:17 | 35.21397 | -120.61128 | 2136 ft | 146 kts | 141° |
| 2026-05-01 14:18 | 35.20594 | -120.60357 | 2661 ft | 148 kts | 139° |
| 2026-05-01 14:18 | 35.19777 | -120.59572 | 3231 ft | 147 kts | 139° |
| 2026-05-01 14:18 | 35.18955 | -120.58786 | 3651 ft | 158 kts | 139° |
| 2026-05-01 14:18 | 35.18359 | -120.58212 | 3847 ft | 171 kts | 139° |
| 2026-05-01 14:19 | 35.17037 | -120.56896 | 4297 ft | 196 kts | 134° |
| 2026-05-01 14:19 | 35.16285 | -120.55424 | 4551 ft | 216 kts | 109° |
| 2026-05-01 14:19 | 35.15719 | -120.53606 | 4832 ft | 242 kts | 110° |
| 2026-05-01 14:19 | 35.15073 | -120.51606 | 5317 ft | 261 kts | 110° |
| 2026-05-01 14:20 | 35.14384 | -120.49518 | 6138 ft | 268 kts | 111° |
| 2026-05-01 14:20 | 35.13354 | -120.45050 | 7712 ft | 280 kts | 93° |
| 2026-05-01 14:20 | 35.13210 | -120.42665 | 8556 ft | 284 kts | 93° |
| 2026-05-01 14:21 | 35.13052 | -120.40234 | 9399 ft | 289 kts | 93° |
| 2026-05-01 14:21 | 35.12887 | -120.37767 | 10201 ft | 295 kts | 94° |
| 2026-05-01 14:21 | 35.12712 | -120.35178 | 10511 ft | 318 kts | 94° |
| 2026-05-01 14:22 | 35.12321 | -120.29508 | 11483 ft | 345 kts | 93° |
| 2026-05-01 14:22 | 35.12118 | -120.26561 | 12189 ft | 350 kts | 93° |
| 2026-05-01 14:22 | 35.11933 | -120.23584 | 12909 ft | 354 kts | 90° |
| 2026-05-01 14:22 | 35.12097 | -120.20575 | 13608 ft | 356 kts | 78° |
| 2026-05-01 14:23 | 35.12712 | -120.17639 | 14257 ft | 359 kts | 71° |
| 2026-05-01 14:23 | 35.13437 | -120.14707 | 14896 ft | 363 kts | 71° |
| 2026-05-01 14:23 | 35.14164 | -120.11741 | 15526 ft | 366 kts | 71° |
| 2026-05-01 14:23 | 35.14893 | -120.08742 | 16157 ft | 370 kts | 71° |
| 2026-05-01 14:24 | 35.15629 | -120.05702 | 16782 ft | 374 kts | 71° |
| 2026-05-01 14:24 | 35.16368 | -120.02638 | 17394 ft | 378 kts | 71° |
| 2026-05-01 14:24 | 35.17115 | -119.99539 | 18021 ft | 382 kts | 71° |
| 2026-05-01 14:24 | 35.17868 | -119.96406 | 18597 ft | 386 kts | 71° |
| 2026-05-01 14:25 | 35.18627 | -119.93242 | 19103 ft | 390 kts | 71° |
| 2026-05-01 14:25 | 35.19398 | -119.90040 | 19623 ft | 394 kts | 71° |
| 2026-05-01 14:25 | 35.20175 | -119.86810 | 20132 ft | 399 kts | 71° |
| 2026-05-01 14:25 | 35.20972 | -119.83495 | 20647 ft | 403 kts | 71° |
| 2026-05-01 14:26 | 35.21757 | -119.80233 | 21140 ft | 407 kts | 70° |
| 2026-05-01 14:26 | 35.23374 | -119.73472 | 22134 ft | 416 kts | 70° |
| 2026-05-01 14:26 | 35.24188 | -119.70058 | 22624 ft | 420 kts | 70° |
| 2026-05-01 14:27 | 35.24985 | -119.66598 | 23091 ft | 426 kts | 74° |
| 2026-05-01 14:27 | 35.25418 | -119.62985 | 23539 ft | 433 kts | 84° |
| 2026-05-01 14:27 | 35.25363 | -119.59286 | 23909 ft | 439 kts | 92° |
| 2026-05-01 14:28 | 35.24985 | -119.51771 | 24665 ft | 446 kts | 91° |
| 2026-05-01 14:28 | 35.24800 | -119.47975 | 25013 ft | 449 kts | 91° |
| 2026-05-01 14:28 | 35.24619 | -119.44140 | 25371 ft | 453 kts | 91° |
| 2026-05-01 14:28 | 35.24435 | -119.40284 | 25720 ft | 456 kts | 91° |
| 2026-05-01 14:29 | 35.24244 | -119.36399 | 26069 ft | 459 kts | 91° |
| 2026-05-01 14:29 | 35.24034 | -119.32494 | 26427 ft | 463 kts | 93° |
| 2026-05-01 14:30 | 35.20924 | -119.21211 | 27424 ft | 477 kts | 121° |
| 2026-05-01 14:30 | 35.19186 | -119.17734 | 27755 ft | 481 kts | 121° |
| 2026-05-01 14:30 | 35.17442 | -119.14229 | 28084 ft | 484 kts | 121° |
| 2026-05-01 14:31 | 35.13933 | -119.07152 | 28739 ft | 490 kts | 121° |
| 2026-05-01 14:31 | 35.12163 | -119.03581 | 29063 ft | 493 kts | 121° |
| 2026-05-01 14:31 | 35.10379 | -118.99990 | 29377 ft | 496 kts | 121° |
| 2026-05-01 14:31 | 35.08585 | -118.96387 | 29687 ft | 499 kts | 121° |
| 2026-05-01 14:32 | 35.06774 | -118.92750 | 29967 ft | 503 kts | 121° |
| 2026-05-01 14:32 | 35.05547 | -118.90287 | 30129 ft | 505 kts | 121° |
| 2026-05-01 14:32 | 35.03116 | -118.85420 | 30464 ft | 508 kts | 121° |
| 2026-05-01 14:32 | 35.01246 | -118.81690 | 30736 ft | 510 kts | 122° |
| 2026-05-01 14:33 | 34.99393 | -118.77998 | 31024 ft | 512 kts | 122° |
| 2026-05-01 14:33 | 34.97528 | -118.74285 | 31312 ft | 513 kts | 122° |
| 2026-05-01 14:33 | 34.95670 | -118.70583 | 31715 ft | 512 kts | 122° |
| 2026-05-01 14:33 | 34.93815 | -118.66886 | 32104 ft | 511 kts | 122° |
| 2026-05-01 14:34 | 34.91960 | -118.63193 | 32474 ft | 511 kts | 122° |
| 2026-05-01 14:34 | 34.90105 | -118.59507 | 32788 ft | 511 kts | 122° |
| 2026-05-01 14:34 | 34.88244 | -118.55818 | 33144 ft | 510 kts | 122° |
| 2026-05-01 14:34 | 34.86392 | -118.52148 | 33509 ft | 509 kts | 122° |
| 2026-05-01 14:35 | 34.84537 | -118.48472 | 33869 ft | 508 kts | 122° |
| 2026-05-01 14:35 | 34.82688 | -118.44809 | 34217 ft | 507 kts | 123° |
| 2026-05-01 14:35 | 34.80844 | -118.41162 | 34542 ft | 506 kts | 123° |
| 2026-05-01 14:35 | 34.78997 | -118.37519 | 34869 ft | 506 kts | 123° |
| 2026-05-01 14:36 | 34.77146 | -118.33876 | 35022 ft | 505 kts | 123° |
| 2026-05-01 14:36 | 34.73461 | -118.26632 | 35044 ft | 503 kts | 123° |
| 2026-05-01 14:37 | 34.69789 | -118.19415 | 35046 ft | 502 kts | 123° |
| 2026-05-01 14:37 | 34.66116 | -118.12214 | 35054 ft | 501 kts | 123° |
| 2026-05-01 14:38 | 34.62702 | -118.04831 | 35062 ft | 503 kts | 112° |
| 2026-05-01 14:38 | 34.60303 | -117.96854 | 35045 ft | 503 kts | 109° |
| 2026-05-01 14:39 | 34.58318 | -117.90162 | 35021 ft | 503 kts | 110° |
| 2026-05-01 14:39 | 34.55939 | -117.82183 | 34985 ft | 503 kts | 110° |
| 2026-05-01 14:40 | 34.53545 | -117.74205 | 34967 ft | 503 kts | 110° |
| 2026-05-01 14:40 | 34.51150 | -117.66234 | 35000 ft | 503 kts | 110° |
| 2026-05-01 14:41 | 34.48755 | -117.58267 | 35025 ft | 503 kts | 110° |
| 2026-05-01 14:41 | 34.46358 | -117.50307 | 35040 ft | 503 kts | 110° |
| 2026-05-01 14:42 | 34.43949 | -117.42348 | 34951 ft | 503 kts | 110° |
| 2026-05-01 14:42 | 34.41511 | -117.34349 | 34960 ft | 503 kts | 110° |
| 2026-05-01 14:43 | 34.39086 | -117.26397 | 34976 ft | 503 kts | 110° |
| 2026-05-01 14:43 | 34.36660 | -117.18442 | 34963 ft | 504 kts | 110° |
| 2026-05-01 14:44 | 34.34231 | -117.10488 | 34969 ft | 504 kts | 110° |
| 2026-05-01 14:44 | 34.30577 | -116.98550 | 34944 ft | 505 kts | 110° |
| 2026-05-01 14:45 | 34.26904 | -116.86618 | 34955 ft | 505 kts | 110° |
| 2026-05-01 14:46 | 34.24433 | -116.78661 | 34942 ft | 506 kts | 110° |
| 2026-05-01 14:46 | 34.20727 | -116.66713 | 34921 ft | 506 kts | 110° |
| 2026-05-01 14:47 | 34.18249 | -116.58747 | 34889 ft | 506 kts | 111° |
| 2026-05-01 14:48 | 34.14518 | -116.46802 | 34909 ft | 508 kts | 110° |
| 2026-05-01 14:48 | 34.10753 | -116.34778 | 34901 ft | 509 kts | 110° |
| 2026-05-01 14:49 | 34.05729 | -116.18785 | 34937 ft | 510 kts | 111° |
| 2026-05-01 14:50 | 34.00656 | -116.02787 | 34907 ft | 511 kts | 111° |
| 2026-05-01 14:51 | 33.96842 | -115.90780 | 34892 ft | 512 kts | 111° |
| 2026-05-01 14:52 | 33.93006 | -115.78760 | 34893 ft | 513 kts | 111° |
| 2026-05-01 14:53 | 33.89157 | -115.66748 | 34860 ft | 513 kts | 111° |
| 2026-05-01 14:53 | 33.86585 | -115.58741 | 34873 ft | 513 kts | 111° |
| 2026-05-01 14:54 | 33.83986 | -115.50687 | 34865 ft | 513 kts | 112° |
| 2026-05-01 14:54 | 33.81396 | -115.42688 | 34864 ft | 514 kts | 111° |
| 2026-05-01 14:55 | 33.78793 | -115.34677 | 34862 ft | 514 kts | 111° |
| 2026-05-01 14:55 | 33.76195 | -115.26674 | 34850 ft | 514 kts | 111° |
| 2026-05-01 14:56 | 33.73589 | -115.18669 | 34859 ft | 515 kts | 111° |
| 2026-05-01 14:56 | 33.70976 | -115.10666 | 34867 ft | 515 kts | 111° |
| 2026-05-01 14:57 | 33.68346 | -115.02668 | 34882 ft | 515 kts | 111° |
| 2026-05-01 14:57 | 33.64402 | -114.90665 | 34893 ft | 516 kts | 111° |
| 2026-05-01 14:58 | 33.61774 | -114.82666 | 34883 ft | 516 kts | 111° |
| 2026-05-01 14:58 | 33.59310 | -114.74524 | 34861 ft | 519 kts | 103° |
| 2026-05-01 14:59 | 33.58455 | -114.70267 | 34617 ft | 531 kts | 102° |
| 2026-05-01 14:59 | 33.57605 | -114.65945 | 34105 ft | 535 kts | 102° |
| 2026-05-01 14:59 | 33.56758 | -114.61579 | 33278 ft | 535 kts | 101° |
| 2026-05-01 14:59 | 33.55929 | -114.57263 | 32720 ft | 529 kts | 101° |
| 2026-05-01 15:00 | 33.54285 | -114.48717 | 31110 ft | 527 kts | 101° |
| 2026-05-01 15:00 | 33.53453 | -114.44436 | 30358 ft | 526 kts | 101° |
| 2026-05-01 15:00 | 33.52621 | -114.40191 | 29690 ft | 521 kts | 101° |
| 2026-05-01 15:01 | 33.51794 | -114.35995 | 28947 ft | 516 kts | 101° |
| 2026-05-01 15:01 | 33.50968 | -114.31833 | 28486 ft | 506 kts | 101° |
| 2026-05-01 15:01 | 33.50168 | -114.27797 | 28327 ft | 490 kts | 101° |
| 2026-05-01 15:01 | 33.49389 | -114.23871 | 27939 ft | 481 kts | 101° |
| 2026-05-01 15:02 | 33.48620 | -114.19993 | 27440 ft | 475 kts | 101° |
| 2026-05-01 15:02 | 33.48365 | -114.18699 | 27236 ft | 472 kts | 101° |
| 2026-05-01 15:02 | 33.47117 | -114.12412 | 25883 ft | 461 kts | 101° |
| 2026-05-01 15:02 | 33.46373 | -114.08693 | 25228 ft | 456 kts | 101° |
| 2026-05-01 15:03 | 33.45626 | -114.04949 | 24848 ft | 459 kts | 101° |
| 2026-05-01 15:03 | 33.44895 | -114.01300 | 24545 ft | 454 kts | 101° |
| 2026-05-01 15:03 | 33.44146 | -113.97577 | 24368 ft | 454 kts | 101° |
| 2026-05-01 15:03 | 33.43408 | -113.93913 | 24127 ft | 452 kts | 101° |
| 2026-05-01 15:04 | 33.42673 | -113.90264 | 23892 ft | 451 kts | 101° |
| 2026-05-01 15:04 | 33.41939 | -113.86617 | 23664 ft | 449 kts | 101° |
| 2026-05-01 15:04 | 33.41210 | -113.82986 | 23437 ft | 448 kts | 101° |
| 2026-05-01 15:04 | 33.40482 | -113.79361 | 23220 ft | 447 kts | 101° |
| 2026-05-01 15:05 | 33.39756 | -113.75751 | 22993 ft | 446 kts | 101° |
| 2026-05-01 15:05 | 33.39029 | -113.72153 | 22778 ft | 445 kts | 101° |
| 2026-05-01 15:05 | 33.38303 | -113.68567 | 22604 ft | 443 kts | 101° |
| 2026-05-01 15:05 | 33.37578 | -113.64994 | 22428 ft | 442 kts | 101° |
| 2026-05-01 15:06 | 33.36854 | -113.61432 | 22258 ft | 440 kts | 101° |
| 2026-05-01 15:06 | 33.36130 | -113.57881 | 22105 ft | 439 kts | 101° |
| 2026-05-01 15:06 | 33.35407 | -113.54341 | 21972 ft | 437 kts | 102° |
| 2026-05-01 15:06 | 33.34686 | -113.50817 | 21824 ft | 436 kts | 102° |
| 2026-05-01 15:07 | 33.33966 | -113.47300 | 21701 ft | 434 kts | 102° |
| 2026-05-01 15:07 | 33.33265 | -113.43797 | 21394 ft | 434 kts | 101° |
| 2026-05-01 15:07 | 33.32623 | -113.40270 | 21098 ft | 432 kts | 99° |
| 2026-05-01 15:07 | 33.32031 | -113.36755 | 20679 ft | 428 kts | 99° |
| 2026-05-01 15:08 | 33.31466 | -113.33285 | 20244 ft | 424 kts | 99° |
| 2026-05-01 15:08 | 33.30903 | -113.29842 | 19803 ft | 421 kts | 99° |
| 2026-05-01 15:08 | 33.30332 | -113.26431 | 19379 ft | 417 kts | 99° |
| 2026-05-01 15:08 | 33.29755 | -113.23049 | 18966 ft | 413 kts | 100° |
| 2026-05-01 15:09 | 33.29212 | -113.19702 | 18547 ft | 409 kts | 99° |
| 2026-05-01 15:09 | 33.28718 | -113.16369 | 18125 ft | 405 kts | 98° |
| 2026-05-01 15:09 | 33.28403 | -113.14134 | 17804 ft | 402 kts | 98° |
| 2026-05-01 15:09 | 33.27953 | -113.10854 | 17356 ft | 398 kts | 98° |
| 2026-05-01 15:10 | 33.27536 | -113.07640 | 17190 ft | 385 kts | 94° |
| 2026-05-01 15:10 | 33.27571 | -113.01449 | 16358 ft | 365 kts | 86° |
| 2026-05-01 15:10 | 33.27655 | -112.98412 | 15624 ft | 364 kts | 87° |
| 2026-05-01 15:11 | 33.27732 | -112.95439 | 15183 ft | 353 kts | 87° |
| 2026-05-01 15:11 | 33.27872 | -112.89668 | 14097 ft | 342 kts | 88° |
| 2026-05-01 15:11 | 33.27939 | -112.86865 | 13776 ft | 329 kts | 89° |
| 2026-05-01 15:12 | 33.28008 | -112.84179 | 13374 ft | 320 kts | 87° |
| 2026-05-01 15:12 | 33.29187 | -112.79117 | 12396 ft | 322 kts | 64° |
| 2026-05-01 15:12 | 33.30095 | -112.76712 | 12257 ft | 312 kts | 64° |
| 2026-05-01 15:13 | 33.32672 | -112.69822 | 11334 ft | 286 kts | 64° |
| 2026-05-01 15:14 | 33.34274 | -112.65588 | 10495 ft | 281 kts | 63° |
| 2026-05-01 15:14 | 33.35084 | -112.63477 | 10269 ft | 276 kts | 63° |
| 2026-05-01 15:14 | 33.36648 | -112.59384 | 9408 ft | 268 kts | 63° |
| 2026-05-01 15:15 | 33.38168 | -112.55398 | 8832 ft | 250 kts | 64° |
| 2026-05-01 15:15 | 33.39586 | -112.51680 | 8290 ft | 244 kts | 64° |
| 2026-05-01 15:16 | 33.40958 | -112.48003 | 7872 ft | 242 kts | 65° |
| 2026-05-01 15:16 | 33.42248 | -112.44312 | 7296 ft | 239 kts | 67° |
| 2026-05-01 15:17 | 33.42862 | -112.40493 | 6751 ft | 234 kts | 90° |
| 2026-05-01 15:18 | 33.42860 | -112.34709 | 5921 ft | 229 kts | 90° |
| 2026-05-01 15:18 | 33.42863 | -112.32806 | 5646 ft | 228 kts | 90° |
| 2026-05-01 15:19 | 33.43069 | -112.27150 | 4864 ft | 227 kts | 78° |
| 2026-05-01 15:19 | 33.43728 | -112.23478 | 4306 ft | 223 kts | 79° |
| 2026-05-01 15:19 | 33.43997 | -112.21652 | 4099 ft | 216 kts | 85° |
| 2026-05-01 15:20 | 33.44085 | -112.18171 | 3587 ft | 206 kts | 90° |
| 2026-05-01 15:20 | 33.44086 | -112.16463 | 3316 ft | 198 kts | 90° |
| 2026-05-01 15:20 | 33.44087 | -112.14850 | 3077 ft | 190 kts | 90° |
| 2026-05-01 15:21 | 33.44087 | -112.13300 | 2835 ft | 184 kts | 90° |
| 2026-05-01 15:21 | 33.44087 | -112.11808 | 2607 ft | 173 kts | 91° |
| 2026-05-01 15:21 | 33.44088 | -112.10456 | 2392 ft | 153 kts | 92° |
| 2026-05-01 15:21 | 33.44088 | -112.09240 | 2209 ft | 142 kts | 92° |
| 2026-05-01 15:22 | 33.44087 | -112.06938 | 1875 ft | 137 kts | 92° |
| 2026-05-01 15:22 | 33.44087 | -112.05809 | 1702 ft | 136 kts | 92° |
| 2026-05-01 15:22 | 33.44088 | -112.04675 | 1493 ft | 135 kts | 91° |
| 2026-05-01 15:23 | 33.44096 | -112.03560 | 1297 ft | 132 kts | 91° |
| 2026-05-01 15:23 | 33.44089 | -112.02459 | 1147 ft | 132 kts | 92° |
| 2026-05-01 15:23 | 33.44086 | -112.01494 | 1131 ft | 95 kts | 90° |
| 2026-05-01 15:23 | 33.44085 | -112.00881 | 1131 ft | 60 kts | 90° |
| 2026-05-01 15:24 | 33.44083 | -112.00401 | 1132 ft | 55 kts | 90° |
| 2026-05-01 15:24 | 33.44082 | -111.99982 | 1133 ft | 34 kts | 89° |
| 2026-05-01 15:24 | 33.44051 | -111.99843 | 1133 ft | 9 kts | 142° |
| 2026-05-01 15:24 | 33.44009 | -111.99832 | 1131 ft | 0 kts | 175° |
| 2026-05-01 15:25 | 33.43989 | -111.99830 | 1130 ft | 6 kts | 175° |
| 2026-05-01 15:25 | 33.43931 | -111.99828 | 1123 ft | 9 kts | 184° |
| 2026-05-01 15:25 | 33.43865 | -111.99827 | 1121 ft | 9 kts | 182° |
| 2026-05-01 15:26 | 33.43833 | -111.99863 | 1125 ft | 5 kts | 237° |
| 2026-05-01 15:26 | 33.43820 | -111.99887 | 1121 ft | 2 kts | 237° |
| 2026-05-01 15:26 | 33.43819 | -111.99889 | 1121 ft | 0 kts | 237° |